Time;durP1;ratioP1;P1;durP2;ratioP2;P2;SDS_P1;SDS_P2;PMS_P1;PMS_P2;Temp;Humidity;BMP_temperature;BMP_pressure;BME280_temperature;BME280_humidity;BME280_pressure;Samples;Min_cycle;Max_cycle;Signal;HPM_P1;HPM_P2
2023/11/29 00:00:07;;;;;;;42.00;22.00;;;;;;;-3.56;87.50;99244.98;107263;280;156344;-53
2023/11/29 00:03:07;;;;;;;41.70;21.80;;;;;;;-3.52;87.51;99250.27;107423;280;106010;-53
2023/11/29 00:05:52;;;;;;;39.50;20.90;;;;;;;-3.51;87.58;99249.84;107377;280;114853;-55
2023/11/29 00:08:28;;;;;;;38.60;19.80;;;;;;;-3.49;87.38;99246.14;107252;282;95843;-54
2023/11/29 00:11:06;;;;;;;41.40;20.80;;;;;;;-3.55;87.33;99247.75;107316;281;98727;-58
2023/11/29 00:13:51;;;;;;;42.90;20.80;;;;;;;-3.58;87.44;99252.77;107155;281;156057;-52
2023/11/29 00:16:33;;;;;;;40.20;20.30;;;;;;;-3.65;87.54;99258.55;107393;281;105138;-53
2023/11/29 00:19:16;;;;;;;44.30;21.00;;;;;;;-3.63;87.66;99260.49;107198;281;156347;-53
2023/11/29 00:21:55;;;;;;;43.10;23.50;;;;;;;-3.60;87.69;99262.92;107338;281;96125;-53
2023/11/29 00:24:35;;;;;;;50.60;24.00;;;;;;;-3.62;87.81;99261.83;107217;281;155002;-52
2023/11/29 00:27:25;;;;;;;50.70;24.80;;;;;;;-3.58;87.75;99260.80;107324;281;120901;-52
2023/11/29 00:30:00;;;;;;;45.30;23.20;;;;;;;-3.56;87.71;99267.33;107249;281;155199;-54
2023/11/29 00:32:45;;;;;;;45.70;23.90;;;;;;;-3.55;87.74;99262.73;107336;280;114066;-55
2023/11/29 00:35:27;;;;;;;46.50;23.20;;;;;;;-3.49;87.66;99264.81;107414;280;95368;-56
2023/11/29 00:38:03;;;;;;;45.70;22.80;;;;;;;-3.44;87.66;99266.67;107228;280;156340;-55
2023/11/29 00:40:37;;;;;;;44.30;21.20;;;;;;;-3.42;87.75;99266.01;107342;280;120807;-52
2023/11/29 00:43:18;;;;;;;43.00;22.50;;;;;;;-3.41;87.72;99266.77;107218;280;155162;-53
2023/11/29 00:46:00;;;;;;;45.10;23.00;;;;;;;-3.37;87.65;99265.55;107387;280;115132;-58
2023/11/29 00:48:40;;;;;;;52.10;25.70;;;;;;;-3.40;87.66;99270.17;107291;280;155079;-56
2023/11/29 00:51:20;;;;;;;44.40;22.50;;;;;;;-3.38;87.65;99277.77;107407;280;97740;-55
2023/11/29 00:54:04;;;;;;;38.40;19.10;;;;;;;-3.44;87.67;99284.50;107243;280;155105;-52
2023/11/29 00:56:46;;;;;;;41.80;21.20;;;;;;;-3.53;87.81;99279.58;107381;280;105182;-52
2023/11/29 00:59:25;;;;;;;38.70;20.30;;;;;;;-3.55;87.76;99280.65;107387;280;114106;-57
2023/11/29 01:02:05;;;;;;;39.70;20.10;;;;;;;-3.57;87.75;99283.64;107227;280;155152;-57
2023/11/29 01:04:46;;;;;;;33.80;17.00;;;;;;;-3.59;87.68;99288.71;107343;280;96289;-57
2023/11/29 01:07:21;;;;;;;39.80;22.00;;;;;;;-3.63;87.75;99294.16;107202;280;154945;-57
2023/11/29 01:09:56;;;;;;;36.90;19.60;;;;;;;-3.63;87.78;99295.34;107433;280;103657;-54
2023/11/29 01:12:35;;;;;;;;;;;;;;;-3.64;87.78;99297.60;107306;280;156108;-54
2023/11/29 01:15:19;;;;;;;43.80;21.80;;;;;;;-3.70;87.88;99300.52;107438;280;96101;-54
2023/11/29 01:18:01;;;;;;;44.30;22.80;;;;;;;-3.66;87.95;99301.42;107335;280;155638;-55
2023/11/29 01:20:40;;;;;;;45.60;25.30;;;;;;;-3.64;87.93;99304.25;107416;280;120868;-53
2023/11/29 01:23:24;;;;;;;42.50;21.90;;;;;;;-3.62;87.96;99303.52;107388;280;105037;-52
2023/11/29 01:26:08;;;;;;;45.80;24.40;;;;;;;-3.53;87.97;99309.85;107265;280;155218;-55
2023/11/29 01:28:45;;;;;;;54.10;29.40;;;;;;;-3.48;87.90;99311.92;107386;280;96856;-52
2023/11/29 01:31:26;;;;;;;46.10;24.70;;;;;;;-3.46;87.82;99311.73;107250;280;155008;-51
2023/11/29 01:34:02;;;;;;;48.50;23.20;;;;;;;-3.43;87.74;99313.05;107412;280;121474;-55
2023/11/29 01:36:43;;;;;;;44.00;23.10;;;;;;;-3.41;87.82;99315.21;107229;272;154449;-54
2023/11/29 01:39:20;;;;;;;49.20;23.90;;;;;;;-3.40;87.90;99319.14;107337;273;114209;-52
2023/11/29 01:42:02;;;;;;;48.80;22.80;;;;;;;-3.38;87.90;99321.46;107270;280;95721;-53
2023/11/29 01:44:47;;;;;;;45.40;22.40;;;;;;;-3.41;87.93;99321.73;107355;280;96594;-53
2023/11/29 01:47:25;;;;;;;45.20;22.40;;;;;;;-3.42;87.80;99319.84;107378;280;121047;-52
2023/11/29 01:50:05;;;;;;;44.70;21.40;;;;;;;-3.48;87.78;99318.40;107238;280;155628;-52
2023/11/29 01:52:49;;;;;;;38.40;19.70;;;;;;;-3.47;87.71;99321.66;107372;281;113740;-52
2023/11/29 01:55:27;;;;;;;39.20;19.40;;;;;;;-3.53;87.87;99320.41;107272;280;156108;-55
2023/11/29 01:58:10;;;;;;;38.70;20.50;;;;;;;-3.60;87.84;99322.05;107399;280;96899;-55
2023/11/29 02:00:53;;;;;;;40.80;21.20;;;;;;;-3.59;87.91;99327.25;107266;280;156077;-51
2023/11/29 02:03:38;;;;;;;42.00;21.60;;;;;;;-3.60;87.91;99325.52;107400;280;105356;-53
2023/11/29 02:06:14;;;;;;;38.40;20.20;;;;;;;-3.63;88.05;99325.29;107256;281;154632;-53
2023/11/29 02:08:55;;;;;;;41.20;21.90;;;;;;;-3.65;87.94;99324.23;107383;280;92036;-57
2023/11/29 02:11:38;;;;;;;39.20;21.40;;;;;;;-3.67;87.91;99324.39;107391;281;98151;-57
2023/11/29 02:14:28;;;;;;;42.30;20.80;;;;;;;-3.70;87.80;99322.36;107261;280;154603;-53
2023/11/29 02:17:05;;;;;;;40.40;19.90;;;;;;;-3.78;87.72;99322.52;107374;281;105403;-53
2023/11/29 02:19:43;;;;;;;51.90;26.20;;;;;;;-3.81;87.67;99318.00;107230;280;156427;-54
2023/11/29 02:22:30;;;;;;;54.90;26.50;;;;;;;-3.81;87.64;99317.29;107375;281;95569;-54
2023/11/29 02:25:11;;;;;;;49.70;21.50;;;;;;;-3.82;87.66;99316.84;107275;280;154875;-54
2023/11/29 02:27:55;;;;;;;43.90;20.40;;;;;;;-3.84;87.66;99315.75;107364;280;120517;-53
2023/11/29 02:30:36;;;;;;;37.80;20.90;;;;;;;-3.86;87.64;99320.33;107244;280;156413;-55
2023/11/29 02:33:17;;;;;;;40.30;20.00;;;;;;;-3.90;87.57;99330.52;107390;280;115229;-55
2023/11/29 02:35:55;;;;;;;46.80;23.00;;;;;;;-3.97;87.66;99329.36;107370;281;93929;-52
2023/11/29 02:38:34;;;;;;;45.40;24.10;;;;;;;-3.92;87.67;99330.55;107363;280;98275;-55
2023/11/29 02:41:13;;;;;;;44.90;22.10;;;;;;;-3.92;87.75;99324.71;107398;280;121053;-54
2023/11/29 02:43:57;;;;;;;84.00;36.50;;;;;;;-3.94;87.66;99334.00;107229;280;156499;-52
2023/11/29 02:46:39;;;;;;;71.30;30.20;;;;;;;-3.95;87.73;99338.30;107350;281;113451;-53
2023/11/29 02:49:24;;;;;;;72.50;29.50;;;;;;;-3.94;87.82;99340.70;107287;281;154904;-55
2023/11/29 02:52:06;;;;;;;75.60;30.70;;;;;;;-3.93;87.84;99337.79;107392;280;97622;-57
2023/11/29 02:54:54;;;;;;;68.40;29.30;;;;;;;-3.90;87.81;99344.05;107227;280;156073;-57
2023/11/29 02:57:35;;;;;;;54.10;25.90;;;;;;;-3.89;87.91;99347.47;107380;280;104588;-57
2023/11/29 03:00:16;;;;;;;49.00;23.40;;;;;;;-3.87;87.86;99347.69;107203;281;155344;-51
2023/11/29 03:03:00;;;;;;;48.00;24.50;;;;;;;-3.86;87.83;99345.15;107444;280;92543;-52
2023/11/29 03:05:42;;;;;;;45.70;22.30;;;;;;;-3.82;87.88;99345.52;107357;281;99978;-52
2023/11/29 03:08:23;;;;;;;49.10;23.00;;;;;;;-3.82;87.95;99354.44;107302;280;154386;-53
2023/11/29 03:10:59;;;;;;;48.50;23.40;;;;;;;-3.81;87.95;99351.70;107364;281;104520;-57
2023/11/29 03:13:34;;;;;;;58.50;26.10;;;;;;;-3.86;87.95;99349.16;107265;280;154595;-55
2023/11/29 03:16:14;;;;;;;51.70;23.00;;;;;;;-3.85;87.91;99348.94;107389;280;97112;-55
2023/11/29 03:18:58;;;;;;;48.60;22.90;;;;;;;-3.83;87.88;99346.68;107255;281;154809;-53
2023/11/29 03:21:40;;;;;;;42.30;20.40;;;;;;;-3.83;87.91;99345.46;107356;280;121877;-54
2023/11/29 03:24:19;;;;;;;44.70;21.20;;;;;;;-3.76;87.82;99348.90;107220;281;155193;-53
2023/11/29 03:27:00;;;;;;;44.40;20.90;;;;;;;-3.87;87.80;99348.38;107360;280;114627;-53
2023/11/29 03:29:36;;;;;;;43.60;20.70;;;;;;;-3.89;87.74;99349.46;107390;281;95953;-52
2023/11/29 03:32:15;;;;;;;41.70;19.70;;;;;;;-3.91;87.70;99352.05;107322;280;156066;-52
2023/11/29 03:34:56;;;;;;;40.30;19.10;;;;;;;-3.92;87.75;99350.38;107404;281;121737;-53
2023/11/29 03:37:39;;;;;;;43.70;20.10;;;;;;;-3.84;87.91;99350.07;107291;280;154267;-53
2023/11/29 03:40:18;;;;;;;39.80;19.50;;;;;;;-3.85;87.88;99354.39;107411;280;114089;-51
2023/11/29 03:42:59;;;;;;;38.30;19.00;;;;;;;-3.90;87.98;99350.02;107306;280;155532;-53
2023/11/29 03:45:41;;;;;;;45.00;21.20;;;;;;;-3.87;87.97;99348.80;107406;280;97945;-53
2023/11/29 03:48:19;;;;;;;47.00;21.40;;;;;;;-3.92;87.89;99348.42;107228;280;155260;-52
2023/11/29 03:50:59;;;;;;;44.80;20.20;;;;;;;-4.01;87.78;99348.81;107469;280;105486;-55
2023/11/29 03:53:35;;;;;;;46.80;21.60;;;;;;;-4.09;87.83;99343.89;107383;281;114991;-53
2023/11/29 03:56:10;;;;;;;45.90;21.00;;;;;;;-4.15;87.82;99342.56;107315;280;155186;-56
2023/11/29 03:58:51;;;;;;;48.00;20.10;;;;;;;-4.18;87.87;99338.62;107380;281;97945;-57
2023/11/29 04:01:33;;;;;;;46.40;19.70;;;;;;;-4.21;87.77;99345.69;107249;280;154935;-57
2023/11/29 04:04:08;;;;;;;44.80;20.70;;;;;;;-4.20;87.80;99349.30;107370;280;105406;-57
2023/11/29 04:06:48;;;;;;;46.10;21.90;;;;;;;-4.17;87.77;99350.25;107295;280;157317;-54
2023/11/29 04:09:27;;;;;;;44.70;20.30;;;;;;;-4.13;87.83;99355.14;107388;280;93195;-57
2023/11/29 04:12:09;;;;;;;45.00;21.20;;;;;;;-4.10;87.92;99349.08;107286;281;154314;-58
2023/11/29 04:14:52;;;;;;;48.80;21.20;;;;;;;-4.07;87.96;99351.99;107472;280;121113;-54
2023/11/29 04:17:35;;;;;;;41.10;17.80;;;;;;;-4.06;88.03;99355.21;107361;281;103287;-55
2023/11/29 04:20:18;;;;;;;48.40;21.40;;;;;;;-4.07;88.05;99354.43;107257;280;154851;-53
2023/11/29 04:22:55;;;;;;;48.10;23.20;;;;;;;-4.10;88.06;99357.46;107391;281;95936;-53
2023/11/29 04:25:36;;;;;;;47.50;22.40;;;;;;;-4.16;88.05;99356.56;107213;280;154720;-55
2023/11/29 04:28:12;;;;;;;51.20;22.10;;;;;;;-4.20;88.01;99353.30;107354;280;121203;-55
2023/11/29 04:30:58;;;;;;;45.30;21.40;;;;;;;-4.19;87.98;99351.00;106645;280;762599;-57
2023/11/29 04:33:34;;;;;;;48.20;22.20;;;;;;;-4.18;88.07;99352.16;107358;282;115022;-55
2023/11/29 04:36:14;;;;;;;48.80;22.80;;;;;;;-4.18;88.06;99354.80;107251;281;154918;-56
2023/11/29 04:38:50;;;;;;;51.30;22.80;;;;;;;-4.21;88.03;99358.52;107349;281;98576;-54
2023/11/29 04:41:27;;;;;;;54.10;23.60;;;;;;;-4.28;88.03;99357.29;107373;281;121399;-52
2023/11/29 04:44:03;;;;;;;53.10;22.40;;;;;;;-4.25;88.12;99361.82;107135;282;155483;-54
2023/11/29 04:46:44;;;;;;;53.50;23.10;;;;;;;-4.23;88.17;99358.66;107334;280;114566;-54
2023/11/29 04:49:23;;;;;;;51.40;24.00;;;;;;;-4.21;88.28;99361.81;107243;280;156204;-53
2023/11/29 04:52:04;;;;;;;54.70;23.00;;;;;;;-4.17;88.36;99366.11;107367;280;97719;-52
2023/11/29 04:54:45;;;;;;;52.60;23.90;;;;;;;-4.10;88.39;99369.61;107201;280;155196;-55
2023/11/29 04:57:28;;;;;;;52.30;22.90;;;;;;;-4.06;88.43;99370.18;107359;281;105969;-54
2023/11/29 05:00:08;;;;;;;54.60;21.80;;;;;;;-4.03;88.32;99366.03;107230;281;155227;-52
2023/11/29 05:02:47;;;;;;;54.10;23.50;;;;;;;-4.00;88.42;99364.45;107371;280;95829;-52
2023/11/29 05:05:24;;;;;;;53.30;23.80;;;;;;;-3.95;88.35;99366.25;107331;281;98112;-52
2023/11/29 05:08:00;;;;;;;51.30;22.90;;;;;;;-3.90;88.45;99362.58;107213;280;154989;-53
2023/11/29 05:10:39;;;;;;;51.40;22.60;;;;;;;-3.87;88.44;99367.78;107386;281;105167;-52
2023/11/29 05:13:18;;;;;;;46.10;21.80;;;;;;;-3.88;88.49;99379.08;107239;280;154410;-52
2023/11/29 05:16:04;;;;;;;53.80;22.80;;;;;;;-3.86;88.54;99379.77;107360;281;99262;-56
2023/11/29 05:18:46;;;;;;;52.90;21.40;;;;;;;-3.82;88.61;99382.08;107141;282;155282;-59
2023/11/29 05:21:27;;;;;;;54.20;24.30;;;;;;;-3.79;88.64;99380.09;107259;282;119753;-58
2023/11/29 05:24:07;;;;;;;55.20;23.40;;;;;;;-3.75;88.64;99379.95;107269;282;105938;-53
2023/11/29 05:26:48;;;;;;;50.60;21.70;;;;;;;-3.74;88.46;99379.85;107147;283;114977;-53
2023/11/29 05:29:28;;;;;;;51.80;20.90;;;;;;;-3.80;88.43;99379.64;107148;283;94259;-53
2023/11/29 05:32:12;;;;;;;48.20;21.50;;;;;;;-3.81;88.55;99379.89;107107;282;155691;-53
2023/11/29 05:34:51;;;;;;;45.70;21.20;;;;;;;-3.76;88.60;99379.86;107309;282;120882;-52
2023/11/29 05:37:27;;;;;;;46.70;20.00;;;;;;;-3.73;88.69;99384.17;107163;282;154889;-53
2023/11/29 05:40:08;;;;;;;46.90;22.50;;;;;;;-3.67;88.70;99390.34;107269;282;114690;-57
2023/11/29 05:42:50;;;;;;;42.90;19.00;;;;;;;-3.67;88.74;99394.36;107177;282;154581;-57
2023/11/29 05:45:28;;;;;;;46.80;21.50;;;;;;;-3.68;88.71;99395.02;107278;282;97251;-52
2023/11/29 05:48:07;;;;;;;42.90;20.10;;;;;;;-3.66;88.56;99395.75;107355;282;120614;-52
2023/11/29 05:50:51;;;;;;;43.10;20.90;;;;;;;-3.64;88.66;99395.55;107170;282;105821;-53
2023/11/29 05:53:33;;;;;;;31.40;15.50;;;;;;;-3.63;88.64;99397.56;107358;282;114383;-54
2023/11/29 05:56:12;;;;;;;38.80;19.10;;;;;;;-3.60;88.60;99400.50;107150;282;156316;-52
2023/11/29 05:58:49;;;;;;;34.70;17.70;;;;;;;-3.56;88.52;99400.52;107330;282;97664;-53
2023/11/29 06:01:26;;;;;;;39.80;18.90;;;;;;;-3.58;88.49;99407.91;107122;282;155127;-54
2023/11/29 06:04:07;;;;;;;39.30;17.90;;;;;;;-3.54;88.44;99405.14;107340;282;104029;-54
2023/11/29 06:06:43;;;;;;;34.70;18.40;;;;;;;-3.52;88.41;99407.61;107171;282;155465;-54
2023/11/29 06:09:28;;;;;;;36.70;17.90;;;;;;;-3.55;88.35;99410.31;107291;282;93343;-57
2023/11/29 06:12:13;;;;;;;32.80;16.70;;;;;;;-3.63;88.40;99418.00;107319;282;96931;-58
2023/11/29 06:14:48;;;;;;;;;;;;;;;-3.63;88.47;99423.63;107064;283;118658;-52
2023/11/29 06:17:23;;;;;;;38.70;16.10;;;;;;;-3.68;88.43;99423.19;107277;282;104396;-53
2023/11/29 06:20:06;;;;;;;36.40;16.90;;;;;;;-3.66;88.46;99423.85;107277;280;156120;-53
2023/11/29 06:22:43;;;;;;;34.70;16.90;;;;;;;-3.63;88.32;99430.80;107362;281;94340;-54
2023/11/29 06:25:29;;;;;;;33.30;17.10;;;;;;;-3.64;88.44;99426.49;107261;280;154822;-53
2023/11/29 06:28:13;;;;;;;35.80;15.70;;;;;;;-3.62;88.31;99423.51;107319;280;120777;-53
2023/11/29 06:30:54;;;;;;;35.50;15.80;;;;;;;-3.60;88.38;99422.71;107233;280;155263;-52
2023/11/29 06:33:30;;;;;;;31.50;16.00;;;;;;;-3.60;88.52;99419.15;107435;280;115142;-55
2023/11/29 06:36:11;;;;;;;32.10;16.40;;;;;;;-3.56;88.36;99420.46;107355;281;93332;-56
2023/11/29 06:38:54;;;;;;;36.80;16.90;;;;;;;-3.52;88.22;99422.77;107285;281;96808;-55
2023/11/29 06:41:35;;;;;;;33.90;15.30;;;;;;;-3.53;88.25;99418.21;107343;281;120716;-56
2023/11/29 06:44:11;;;;;;;31.30;15.40;;;;;;;-3.57;88.29;99426.31;107186;280;153773;-54
2023/11/29 06:46:50;;;;;;;29.90;15.10;;;;;;;-3.57;88.30;99429.26;107363;281;113088;-53
2023/11/29 06:49:26;;;;;;;36.80;16.30;;;;;;;-3.62;88.28;99432.89;107296;280;155252;-56
2023/11/29 06:52:08;;;;;;;35.20;16.10;;;;;;;-3.62;88.31;99434.63;107394;280;96062;-56
2023/11/29 06:54:50;;;;;;;28.50;14.50;;;;;;;-3.60;88.41;99441.31;107185;280;156236;-54
2023/11/29 06:57:26;;;;;;;34.60;16.70;;;;;;;-3.55;88.42;99444.98;107390;281;104291;-53
2023/11/29 07:00:09;;;;;;;40.10;17.90;;;;;;;-3.48;88.43;99451.42;107347;281;113863;-57
2023/11/29 07:02:53;;;;;;;41.60;18.50;;;;;;;-3.46;88.40;99454.95;107367;281;95599;-57
2023/11/29 07:05:30;;;;;;;41.80;19.50;;;;;;;-3.44;88.48;99459.23;107354;281;96597;-54
2023/11/29 07:08:07;;;;;;;38.20;17.60;;;;;;;-3.41;88.55;99464.61;107306;280;155421;-54
2023/11/29 07:10:45;;;;;;;43.90;20.40;;;;;;;-3.37;88.46;99466.39;107399;281;106100;-52
2023/11/29 07:13:24;;;;;;;37.80;18.50;;;;;;;-3.33;88.49;99466.59;107302;280;154337;-54
2023/11/29 07:16:04;;;;;;;40.90;19.20;;;;;;;-3.31;88.36;99469.58;107413;280;93340;-53
2023/11/29 07:18:46;;;;;;;42.50;19.20;;;;;;;-3.33;88.18;99471.13;107196;282;154431;-56
2023/11/29 07:21:29;;;;;;;37.90;18.90;;;;;;;-3.46;88.20;99471.66;107333;282;120793;-55
2023/11/29 07:24:06;;;;;;;40.10;18.30;;;;;;;-3.43;88.24;99475.33;107330;282;105376;-55
2023/11/29 07:26:42;;;;;;;42.00;20.90;;;;;;;-3.41;88.14;99478.49;107115;283;114068;-56
2023/11/29 07:29:24;;;;;;;41.70;19.00;;;;;;;-3.40;88.12;99480.38;107273;283;96754;-52
2023/11/29 07:32:05;;;;;;;43.10;18.90;;;;;;;-3.37;88.33;99489.23;107100;282;154811;-52
2023/11/29 07:34:53;;;;;;;41.60;19.70;;;;;;;-3.28;88.20;99493.61;107325;282;120329;-57
2023/11/29 07:37:32;;;;;;;40.00;20.40;;;;;;;-3.19;88.32;99498.88;107118;278;155322;-58
2023/11/29 07:40:15;;;;;;;42.50;20.40;;;;;;;-3.16;88.32;99499.99;107138;282;116753;-57
2023/11/29 07:43:00;;;;;;;42.80;21.60;;;;;;;-3.14;88.20;99501.46;107165;282;154560;-58
2023/11/29 07:45:39;;;;;;;;;;;;;;;-3.15;88.37;99500.80;107334;282;98087;-53
2023/11/29 07:48:17;;;;;;;38.40;20.00;;;;;;;-3.12;88.44;99502.29;107238;282;140408;-52
2023/11/29 07:51:03;;;;;;;41.00;20.50;;;;;;;-3.12;88.35;99502.31;107270;282;105348;-57
2023/11/29 07:53:44;;;;;;;36.00;19.60;;;;;;;-3.10;88.19;99500.60;107268;282;112976;-56
2023/11/29 07:56:25;;;;;;;37.30;18.60;;;;;;;-3.08;88.04;99499.70;107110;282;155212;-54
2023/11/29 07:59:07;;;;;;;30.70;15.40;;;;;;;-3.10;88.17;99501.61;107376;282;97905;-58
2023/11/29 08:01:44;;;;;;;25.40;12.80;;;;;;;-3.08;88.23;99500.39;107151;282;155010;-57
2023/11/29 08:04:23;;;;;;;33.60;15.00;;;;;;;-2.99;88.03;99498.95;107375;282;105672;-53
2023/11/29 08:07:05;;;;;;;28.90;15.60;;;;;;;-3.02;87.88;99504.10;107205;282;155459;-52
2023/11/29 08:09:47;;;;;;;27.80;15.10;;;;;;;-2.98;87.80;99507.33;107305;282;94150;-55
2023/11/29 08:12:31;;;;;;;29.80;14.60;;;;;;;-2.95;87.77;99511.67;107327;282;154597;-55
2023/11/29 08:15:09;;;;;;;29.40;14.20;;;;;;;-3.00;87.72;99510.68;107298;282;120342;-53
2023/11/29 08:17:52;;;;;;;29.00;14.90;;;;;;;-3.06;87.81;99515.19;107361;281;106388;-53
2023/11/29 08:20:33;;;;;;;34.90;17.30;;;;;;;-3.03;87.80;99524.83;107300;280;153792;-54
2023/11/29 08:23:09;;;;;;;33.70;16.80;;;;;;;-3.04;87.65;99518.73;107480;281;95884;-54
2023/11/29 08:25:51;;;;;;;34.80;16.80;;;;;;;-2.97;87.84;99515.02;107258;280;155067;-58
2023/11/29 08:28:30;;;;;;;32.20;16.10;;;;;;;-2.85;87.95;99519.63;107343;280;121374;-54
2023/11/29 08:31:06;;;;;;;32.80;17.80;;;;;;;-2.76;87.94;99517.88;107254;280;155149;-59
2023/11/29 08:33:44;;;;;;;33.30;16.00;;;;;;;-2.62;87.81;99519.86;107337;280;114361;-57
2023/11/29 08:36:20;;;;;;;34.40;17.60;;;;;;;-2.59;87.72;99515.47;107248;281;156340;-58
2023/11/29 08:39:00;;;;;;;34.00;18.40;;;;;;;-2.51;87.75;99516.63;107412;280;97432;-53
2023/11/29 08:41:37;;;;;;;38.20;18.10;;;;;;;-2.49;87.46;99516.73;107387;281;119654;-52
2023/11/29 08:44:16;;;;;;;38.90;19.40;;;;;;;-2.48;87.48;99518.60;107268;280;154354;-54
2023/11/29 08:46:50;;;;;;;41.30;20.90;;;;;;;-2.42;87.53;99521.08;107344;281;114691;-54
2023/11/29 08:49:35;;;;;;;43.70;19.90;;;;;;;-2.38;87.52;99526.58;107261;280;154579;-54
2023/11/29 08:52:19;;;;;;;47.90;23.30;;;;;;;-2.34;87.46;99522.77;107401;280;97860;-54
2023/11/29 08:54:58;;;;;;;45.50;22.40;;;;;;;-2.28;87.33;99524.55;107279;280;156310;-52
2023/11/29 08:57:41;;;;;;;45.30;23.50;;;;;;;-2.23;87.35;99524.42;107435;280;104974;-53
2023/11/29 09:00:21;;;;;;;46.80;24.00;;;;;;;-2.15;87.34;99526.05;107368;281;114159;-53
2023/11/29 09:03:01;;;;;;;44.40;23.90;;;;;;;-2.10;87.07;99522.60;107293;281;92748;-54
2023/11/29 09:05:41;;;;;;;48.60;23.20;;;;;;;-2.12;86.98;99520.30;107376;281;97380;-55
2023/11/29 09:08:20;;;;;;;46.40;25.10;;;;;;;-2.11;86.91;99515.25;107183;280;154652;-55
2023/11/29 09:11:02;;;;;;;45.30;24.40;;;;;;;-2.06;86.94;99515.06;107422;281;104679;-58
2023/11/29 09:13:44;;;;;;;43.60;22.90;;;;;;;-2.08;86.84;99515.76;107267;280;154420;-55
2023/11/29 09:16:24;;;;;;;46.40;23.10;;;;;;;-2.05;86.73;99511.73;107352;280;94996;-54
2023/11/29 09:18:59;;;;;;;44.60;22.60;;;;;;;-2.05;86.45;99510.34;107239;280;155053;-57
2023/11/29 09:21:37;;;;;;;45.30;21.90;;;;;;;-1.97;86.34;99505.79;107397;280;120078;-58
2023/11/29 09:24:17;;;;;;;41.20;20.70;;;;;;;-1.87;86.36;99506.34;107372;281;104806;-52
2023/11/29 09:26:54;;;;;;;41.40;20.40;;;;;;;-1.83;86.33;99508.77;107254;281;114461;-52
2023/11/29 09:29:34;;;;;;;40.10;19.60;;;;;;;-1.74;86.48;99506.11;107394;281;92540;-57
2023/11/29 09:32:10;;;;;;;40.10;21.10;;;;;;;-1.57;86.48;99501.91;107325;280;154504;-58
2023/11/29 09:34:49;;;;;;;41.20;21.40;;;;;;;-1.51;86.19;99498.39;107337;280;119461;-56
2023/11/29 09:37:29;;;;;;;44.40;21.80;;;;;;;-1.48;86.09;99496.20;107243;280;154210;-56
2023/11/29 09:40:14;;;;;;;41.00;20.30;;;;;;;-1.40;85.93;99498.14;107386;280;114042;-53
2023/11/29 09:42:54;;;;;;;;;;;;;;;-1.39;85.89;99494.48;107135;280;155220;-54
2023/11/29 09:45:36;;;;;;;38.60;20.40;;;;;;;-1.37;85.59;99491.43;107416;280;97458;-58
2023/11/29 09:48:11;;;;;;;36.70;18.70;;;;;;;-1.37;85.37;99493.40;107365;281;120680;-57
2023/11/29 09:50:52;;;;;;;40.30;19.80;;;;;;;-1.39;85.34;99496.95;107303;280;154797;-57
2023/11/29 09:53:36;;;;;;;41.30;20.20;;;;;;;-1.32;85.32;99504.60;107392;281;114026;-54
2023/11/29 09:56:14;;;;;;;40.00;19.70;;;;;;;-1.19;85.47;99500.96;107280;280;154917;-54
2023/11/29 09:58:57;;;;;;;38.90;19.50;;;;;;;-1.06;85.12;99503.39;107349;281;96485;-53
2023/11/29 10:01:39;;;;;;;41.20;20.90;;;;;;;-1.00;85.09;99506.34;107295;280;154544;-54
2023/11/29 10:04:17;;;;;;;44.10;21.10;;;;;;;-1.01;84.92;99503.90;107434;280;105063;-55
2023/11/29 10:07:01;;;;;;;39.60;20.80;;;;;;;-1.05;84.42;99504.26;107227;280;154390;-55
2023/11/29 10:09:44;;;;;;;42.10;21.80;;;;;;;-1.03;84.54;99503.02;107398;280;91556;-54
2023/11/29 10:12:23;;;;;;;41.20;20.40;;;;;;;-1.09;84.36;99504.81;107298;281;99384;-54
2023/11/29 10:15:01;;;;;;;39.70;20.20;;;;;;;-1.10;84.44;99505.47;107288;281;121010;-53
2023/11/29 10:17:45;;;;;;;38.60;21.00;;;;;;;-1.05;84.48;99507.30;107374;281;105205;-54
2023/11/29 10:20:26;;;;;;;40.50;21.10;;;;;;;-0.99;84.25;99510.59;107281;280;154924;-53
2023/11/29 10:23:04;;;;;;;38.30;18.90;;;;;;;-0.90;84.12;99508.07;107367;281;96027;-54
2023/11/29 10:25:40;;;;;;;38.30;20.70;;;;;;;-0.85;84.24;99513.57;107248;280;154906;-54
2023/11/29 10:28:15;;;;;;;36.90;18.60;;;;;;;-0.77;83.83;99511.39;107394;280;120094;-54
2023/11/29 10:30:57;;;;;;;33.60;18.70;;;;;;;-0.76;83.85;99510.11;107262;280;154439;-52
2023/11/29 10:33:39;;;;;;;39.40;19.30;;;;;;;-0.73;83.96;99507.92;107432;280;114329;-58
2023/11/29 10:36:17;;;;;;;37.80;18.10;;;;;;;-0.63;83.48;99507.61;107402;281;92465;-58
2023/11/29 10:38:59;;;;;;;33.30;17.90;;;;;;;-0.62;83.20;99513.23;107322;281;97806;-57
2023/11/29 10:41:38;;;;;;;34.80;18.10;;;;;;;-0.72;82.91;99512.70;107385;281;120286;-58
2023/11/29 10:44:24;;;;;;;36.40;18.40;;;;;;;-0.70;82.74;99510.93;107170;281;154602;-54
2023/11/29 10:47:10;;;;;;;33.30;17.70;;;;;;;-0.66;82.61;99508.63;107370;281;114168;-53
2023/11/29 10:49:53;;;;;;;34.70;17.50;;;;;;;-0.60;82.48;99507.39;107281;280;153991;-56
2023/11/29 10:52:42;;;;;;;32.40;16.00;;;;;;;-0.62;82.12;99510.01;107340;280;99505;-55
2023/11/29 10:55:35;;;;;;;29.70;16.20;;;;;;;-0.65;81.98;99512.81;107250;280;154203;-58
2023/11/29 10:58:24;;;;;;;33.80;16.40;;;;;;;-0.56;82.15;99516.06;107354;280;106332;-58
2023/11/29 11:01:06;;;;;;;33.20;16.50;;;;;;;-0.45;82.19;99513.99;107204;281;156147;-54
2023/11/29 11:03:51;;;;;;;29.50;15.70;;;;;;;-0.33;82.15;99516.41;107407;280;94876;-53
2023/11/29 11:06:42;;;;;;;26.50;15.50;;;;;;;-0.25;81.82;99517.19;107279;281;154597;-54
2023/11/29 11:09:39;;;;;;;28.40;15.20;;;;;;;-0.19;81.69;99514.89;107372;281;119947;-54
2023/11/29 11:12:38;;;;;;;27.20;15.00;;;;;;;-0.14;81.42;99518.14;107379;281;105152;-54
2023/11/29 11:15:24;;;;;;;26.50;15.20;;;;;;;-0.05;81.22;99515.15;107360;281;114608;-53
2023/11/29 11:18:33;;;;;;;30.60;15.50;;;;;;;0.03;81.21;99518.15;107326;281;93284;-54
2023/11/29 11:21:21;;;;;;;26.20;14.20;;;;;;;0.01;80.56;99520.77;107269;281;98603;-59
2023/11/29 11:24:00;;;;;;;25.00;14.90;;;;;;;-0.12;80.40;99516.32;107424;281;120037;-52
2023/11/29 11:27:01;;;;;;;26.40;14.50;;;;;;;-0.22;80.24;99519.77;107285;281;154301;-52
2023/11/29 11:29:39;;;;;;;21.40;12.80;;;;;;;-0.25;80.08;99517.40;107391;281;114528;-56
2023/11/29 11:32:47;;;;;;;22.60;13.70;;;;;;;-0.35;80.07;99512.30;107184;281;154570;-55
2023/11/29 11:35:38;;;;;;;25.10;14.40;;;;;;;-0.31;80.14;99510.70;107404;280;97922;-58
2023/11/29 11:38:13;;;;;;;22.70;13.40;;;;;;;-0.32;80.22;99516.50;107214;280;154102;-57
2023/11/29 11:40:58;;;;;;;28.50;14.30;;;;;;;-0.35;80.29;99512.73;107411;280;105935;-56
2023/11/29 11:43:39;;;;;;;24.20;12.90;;;;;;;-0.37;80.09;99517.14;107196;280;155285;-54
2023/11/29 11:46:19;;;;;;;26.40;15.40;;;;;;;-0.40;80.23;99511.95;107325;281;95361;-54
2023/11/29 11:49:04;;;;;;;21.60;12.40;;;;;;;-0.34;80.16;99513.67;107274;281;156007;-58
2023/11/29 11:51:44;;;;;;;20.20;12.40;;;;;;;-0.28;79.98;99515.34;107293;281;119641;-58
2023/11/29 11:54:26;;;;;;;21.40;12.00;;;;;;;-0.26;80.00;99514.45;107401;281;105490;-55
2023/11/29 11:57:08;;;;;;;20.60;11.70;;;;;;;-0.18;79.87;99513.55;107332;281;112224;-55
2023/11/29 11:59:49;;;;;;;17.80;10.60;;;;;;;-0.16;79.66;99510.12;107358;281;93443;-52
2023/11/29 12:02:36;;;;;;;17.80;10.00;;;;;;;-0.20;79.46;99512.84;107315;280;154147;-52
2023/11/29 12:05:18;;;;;;;17.30;11.00;;;;;;;-0.25;79.27;99512.65;107374;281;122121;-53
2023/11/29 12:08:01;;;;;;;16.30;10.40;;;;;;;-0.31;79.00;99509.28;107210;281;155478;-53
2023/11/29 12:10:39;;;;;;;15.90;9.40;;;;;;;-0.30;79.09;99503.20;107359;281;114421;-58
2023/11/29 12:13:20;;;;;;;17.90;10.30;;;;;;;-0.31;78.85;99504.04;107191;281;155373;-53